sensor_id;sensor_type;location;lat;lon;timestamp;P1;durP1;ratioP1;P2;durP2;ratioP2
61702;SDS011;47622;47.726;3.298;2023-05-10T00:01:57;6.88;;;2.38;;
61702;SDS011;47622;47.726;3.298;2023-05-10T00:04:23;4.90;;;2.13;;
61702;SDS011;47622;47.726;3.298;2023-05-10T00:06:52;3.15;;;2.13;;
61702;SDS011;47622;47.726;3.298;2023-05-10T00:09:18;3.72;;;2.22;;
61702;SDS011;47622;47.726;3.298;2023-05-10T00:11:44;4.90;;;1.95;;
61702;SDS011;47622;47.726;3.298;2023-05-10T00:14:09;5.85;;;2.25;;
61702;SDS011;47622;47.726;3.298;2023-05-10T00:16:35;3.53;;;1.98;;
61702;SDS011;47622;47.726;3.298;2023-05-10T00:19:01;4.53;;;2.97;;
61702;SDS011;47622;47.726;3.298;2023-05-10T00:21:27;5.05;;;2.20;;
61702;SDS011;47622;47.726;3.298;2023-05-10T00:23:53;4.43;;;2.28;;
61702;SDS011;47622;47.726;3.298;2023-05-10T00:26:19;6.65;;;2.88;;
61702;SDS011;47622;47.726;3.298;2023-05-10T00:28:45;8.15;;;2.30;;
61702;SDS011;47622;47.726;3.298;2023-05-10T00:31:11;5.88;;;2.38;;
61702;SDS011;47622;47.726;3.298;2023-05-10T00:33:36;7.65;;;2.38;;
61702;SDS011;47622;47.726;3.298;2023-05-10T00:36:02;5.25;;;2.50;;
61702;SDS011;47622;47.726;3.298;2023-05-10T00:38:28;4.82;;;1.90;;
61702;SDS011;47622;47.726;3.298;2023-05-10T00:40:53;4.00;;;2.17;;
61702;SDS011;47622;47.726;3.298;2023-05-10T00:43:19;8.20;;;2.00;;
61702;SDS011;47622;47.726;3.298;2023-05-10T00:45:44;6.60;;;2.55;;
61702;SDS011;47622;47.726;3.298;2023-05-10T00:48:10;4.38;;;1.90;;
61702;SDS011;47622;47.726;3.298;2023-05-10T00:50:36;3.15;;;1.88;;
61702;SDS011;47622;47.726;3.298;2023-05-10T00:53:02;2.97;;;2.00;;
61702;SDS011;47622;47.726;3.298;2023-05-10T00:55:28;5.72;;;1.80;;
61702;SDS011;47622;47.726;3.298;2023-05-10T00:57:54;5.15;;;1.67;;
61702;SDS011;47622;47.726;3.298;2023-05-10T01:00:19;5.78;;;1.88;;
61702;SDS011;47622;47.726;3.298;2023-05-10T01:02:45;7.28;;;1.80;;
61702;SDS011;47622;47.726;3.298;2023-05-10T01:05:14;3.28;;;1.60;;
61702;SDS011;47622;47.726;3.298;2023-05-10T01:07:40;6.18;;;1.75;;
61702;SDS011;47622;47.726;3.298;2023-05-10T01:10:06;3.88;;;1.70;;
61702;SDS011;47622;47.726;3.298;2023-05-10T01:12:37;10.70;;;2.58;;
61702;SDS011;47622;47.726;3.298;2023-05-10T01:15:06;2.50;;;1.77;;
61702;SDS011;47622;47.726;3.298;2023-05-10T01:17:33;4.38;;;1.80;;
61702;SDS011;47622;47.726;3.298;2023-05-10T01:20:03;4.65;;;2.10;;
61702;SDS011;47622;47.726;3.298;2023-05-10T01:25:28;5.47;;;1.60;;
61702;SDS011;47622;47.726;3.298;2023-05-10T01:28:13;4.90;;;2.00;;
61702;SDS011;47622;47.726;3.298;2023-05-10T01:33:39;5.43;;;1.92;;
61702;SDS011;47622;47.726;3.298;2023-05-10T01:36:31;7.03;;;1.77;;
61702;SDS011;47622;47.726;3.298;2023-05-10T01:47:31;4.50;;;2.20;;
61702;SDS011;47622;47.726;3.298;2023-05-10T01:50:04;5.15;;;1.60;;
61702;SDS011;47622;47.726;3.298;2023-05-10T01:52:40;6.15;;;1.90;;
61702;SDS011;47622;47.726;3.298;2023-05-10T01:55:09;5.38;;;1.40;;
61702;SDS011;47622;47.726;3.298;2023-05-10T01:57:40;5.10;;;1.80;;
61702;SDS011;47622;47.726;3.298;2023-05-10T02:00:09;5.78;;;1.50;;
61702;SDS011;47622;47.726;3.298;2023-05-10T02:02:40;7.63;;;1.60;;
61702;SDS011;47622;47.726;3.298;2023-05-10T02:05:07;5.43;;;1.60;;
61702;SDS011;47622;47.726;3.298;2023-05-10T02:07:35;3.38;;;1.80;;
61702;SDS011;47622;47.726;3.298;2023-05-10T02:10:04;4.30;;;1.55;;
61702;SDS011;47622;47.726;3.298;2023-05-10T02:12:33;7.00;;;1.67;;
61702;SDS011;47622;47.726;3.298;2023-05-10T02:15:02;3.53;;;1.55;;
61702;SDS011;47622;47.726;3.298;2023-05-10T02:17:31;3.88;;;1.40;;
61702;SDS011;47622;47.726;3.298;2023-05-10T02:19:58;3.65;;;1.55;;
61702;SDS011;47622;47.726;3.298;2023-05-10T02:22:26;4.10;;;1.50;;
61702;SDS011;47622;47.726;3.298;2023-05-10T02:24:53;4.43;;;1.65;;
61702;SDS011;47622;47.726;3.298;2023-05-10T02:27:21;7.85;;;2.17;;
61702;SDS011;47622;47.726;3.298;2023-05-10T02:29:48;3.28;;;1.65;;
61702;SDS011;47622;47.726;3.298;2023-05-10T02:32:15;5.93;;;1.77;;
61702;SDS011;47622;47.726;3.298;2023-05-10T02:34:42;8.75;;;2.10;;
61702;SDS011;47622;47.726;3.298;2023-05-10T02:37:11;5.28;;;2.10;;
61702;SDS011;47622;47.726;3.298;2023-05-10T02:39:38;9.57;;;1.70;;
61702;SDS011;47622;47.726;3.298;2023-05-10T02:42:09;8.07;;;1.50;;
61702;SDS011;47622;47.726;3.298;2023-05-10T02:44:41;6.57;;;1.95;;
61702;SDS011;47622;47.726;3.298;2023-05-10T02:47:08;3.90;;;1.58;;
61702;SDS011;47622;47.726;3.298;2023-05-10T02:49:33;3.85;;;1.58;;
61702;SDS011;47622;47.726;3.298;2023-05-10T02:52:01;7.68;;;1.90;;
61702;SDS011;47622;47.726;3.298;2023-05-10T02:54:31;5.18;;;1.88;;
61702;SDS011;47622;47.726;3.298;2023-05-10T02:57:01;6.65;;;1.98;;
61702;SDS011;47622;47.726;3.298;2023-05-10T02:59:29;6.00;;;1.75;;
61702;SDS011;47622;47.726;3.298;2023-05-10T03:01:55;7.85;;;2.13;;
61702;SDS011;47622;47.726;3.298;2023-05-10T03:04:21;6.72;;;2.30;;
61702;SDS011;47622;47.726;3.298;2023-05-10T03:06:47;5.05;;;1.88;;
61702;SDS011;47622;47.726;3.298;2023-05-10T03:09:13;5.13;;;2.10;;
61702;SDS011;47622;47.726;3.298;2023-05-10T03:17:14;4.63;;;2.47;;
61702;SDS011;47622;47.726;3.298;2023-05-10T03:19:55;7.82;;;2.38;;
61702;SDS011;47622;47.726;3.298;2023-05-10T03:22:32;3.92;;;1.95;;
61702;SDS011;47622;47.726;3.298;2023-05-10T03:25:10;7.78;;;1.92;;
61702;SDS011;47622;47.726;3.298;2023-05-10T03:27:38;9.07;;;2.40;;
61702;SDS011;47622;47.726;3.298;2023-05-10T03:30:08;3.42;;;2.20;;
61702;SDS011;47622;47.726;3.298;2023-05-10T03:32:36;5.57;;;2.08;;
61702;SDS011;47622;47.726;3.298;2023-05-10T03:35:09;5.60;;;2.13;;
61702;SDS011;47622;47.726;3.298;2023-05-10T03:37:38;9.30;;;2.15;;
61702;SDS011;47622;47.726;3.298;2023-05-10T03:40:04;5.78;;;2.55;;
61702;SDS011;47622;47.726;3.298;2023-05-10T03:42:30;5.20;;;2.28;;
61702;SDS011;47622;47.726;3.298;2023-05-10T03:44:55;6.18;;;2.10;;
61702;SDS011;47622;47.726;3.298;2023-05-10T03:47:21;6.43;;;2.13;;
61702;SDS011;47622;47.726;3.298;2023-05-10T03:49:46;6.53;;;2.50;;
61702;SDS011;47622;47.726;3.298;2023-05-10T03:52:12;9.95;;;2.40;;
61702;SDS011;47622;47.726;3.298;2023-05-10T03:54:38;6.55;;;2.08;;
61702;SDS011;47622;47.726;3.298;2023-05-10T03:57:03;5.85;;;1.73;;
61702;SDS011;47622;47.726;3.298;2023-05-10T03:59:29;6.43;;;2.05;;
61702;SDS011;47622;47.726;3.298;2023-05-10T04:01:55;8.25;;;2.20;;
61702;SDS011;47622;47.726;3.298;2023-05-10T04:04:21;4.72;;;1.80;;
61702;SDS011;47622;47.726;3.298;2023-05-10T04:06:47;9.18;;;2.50;;
61702;SDS011;47622;47.726;3.298;2023-05-10T04:09:12;6.20;;;2.33;;
61702;SDS011;47622;47.726;3.298;2023-05-10T04:11:38;6.15;;;1.88;;
61702;SDS011;47622;47.726;3.298;2023-05-10T04:14:04;5.93;;;2.00;;
61702;SDS011;47622;47.726;3.298;2023-05-10T04:16:29;4.00;;;2.45;;
61702;SDS011;47622;47.726;3.298;2023-05-10T04:18:55;5.93;;;2.22;;
61702;SDS011;47622;47.726;3.298;2023-05-10T04:21:20;5.00;;;2.15;;
61702;SDS011;47622;47.726;3.298;2023-05-10T04:23:46;2.33;;;1.50;;
61702;SDS011;47622;47.726;3.298;2023-05-10T04:26:12;6.53;;;2.25;;
61702;SDS011;47622;47.726;3.298;2023-05-10T04:28:39;5.95;;;2.10;;
61702;SDS011;47622;47.726;3.298;2023-05-10T04:31:05;4.88;;;1.70;;
61702;SDS011;47622;47.726;3.298;2023-05-10T04:33:33;3.90;;;1.75;;
61702;SDS011;47622;47.726;3.298;2023-05-10T04:35:59;4.60;;;2.05;;
61702;SDS011;47622;47.726;3.298;2023-05-10T04:38:26;7.20;;;2.42;;
61702;SDS011;47622;47.726;3.298;2023-05-10T04:40:52;8.95;;;2.30;;
61702;SDS011;47622;47.726;3.298;2023-05-10T04:43:19;13.00;;;2.28;;
61702;SDS011;47622;47.726;3.298;2023-05-10T04:45:46;12.07;;;2.70;;
61702;SDS011;47622;47.726;3.298;2023-05-10T04:48:11;12.45;;;2.38;;
61702;SDS011;47622;47.726;3.298;2023-05-10T04:50:37;6.18;;;1.88;;
61702;SDS011;47622;47.726;3.298;2023-05-10T04:53:04;7.55;;;2.22;;
61702;SDS011;47622;47.726;3.298;2023-05-10T04:55:30;10.15;;;2.00;;
61702;SDS011;47622;47.726;3.298;2023-05-10T04:57:55;10.73;;;2.17;;
61702;SDS011;47622;47.726;3.298;2023-05-10T05:00:22;5.63;;;1.73;;
61702;SDS011;47622;47.726;3.298;2023-05-10T05:02:48;8.20;;;2.15;;
61702;SDS011;47622;47.726;3.298;2023-05-10T05:05:14;4.50;;;2.20;;
61702;SDS011;47622;47.726;3.298;2023-05-10T05:07:39;7.38;;;2.22;;
61702;SDS011;47622;47.726;3.298;2023-05-10T05:10:05;9.55;;;2.80;;
61702;SDS011;47622;47.726;3.298;2023-05-10T05:12:32;10.55;;;2.40;;
61702;SDS011;47622;47.726;3.298;2023-05-10T05:14:57;7.00;;;2.00;;
61702;SDS011;47622;47.726;3.298;2023-05-10T05:17:23;10.93;;;2.42;;
61702;SDS011;47622;47.726;3.298;2023-05-10T05:19:48;8.02;;;3.08;;
61702;SDS011;47622;47.726;3.298;2023-05-10T05:22:14;5.65;;;2.20;;
61702;SDS011;47622;47.726;3.298;2023-05-10T05:24:39;8.68;;;2.42;;
61702;SDS011;47622;47.726;3.298;2023-05-10T05:27:05;4.72;;;2.10;;
61702;SDS011;47622;47.726;3.298;2023-05-10T05:29:31;9.20;;;2.30;;
61702;SDS011;47622;47.726;3.298;2023-05-10T05:31:57;6.80;;;2.15;;
61702;SDS011;47622;47.726;3.298;2023-05-10T05:34:22;6.55;;;2.17;;
61702;SDS011;47622;47.726;3.298;2023-05-10T05:36:49;12.13;;;2.60;;
61702;SDS011;47622;47.726;3.298;2023-05-10T05:39:15;7.25;;;2.20;;
61702;SDS011;47622;47.726;3.298;2023-05-10T05:41:41;7.25;;;2.42;;
61702;SDS011;47622;47.726;3.298;2023-05-10T05:44:07;6.70;;;2.17;;
61702;SDS011;47622;47.726;3.298;2023-05-10T05:46:33;9.88;;;2.22;;
61702;SDS011;47622;47.726;3.298;2023-05-10T05:48:58;5.97;;;2.38;;
61702;SDS011;47622;47.726;3.298;2023-05-10T05:51:24;10.13;;;3.05;;
61702;SDS011;47622;47.726;3.298;2023-05-10T05:53:49;9.68;;;2.50;;
61702;SDS011;47622;47.726;3.298;2023-05-10T05:56:15;6.40;;;2.50;;
61702;SDS011;47622;47.726;3.298;2023-05-10T05:58:40;11.60;;;2.47;;
61702;SDS011;47622;47.726;3.298;2023-05-10T06:01:06;7.53;;;2.55;;
61702;SDS011;47622;47.726;3.298;2023-05-10T06:03:32;7.15;;;2.17;;
61702;SDS011;47622;47.726;3.298;2023-05-10T06:05:58;6.60;;;2.03;;
61702;SDS011;47622;47.726;3.298;2023-05-10T06:08:23;7.90;;;2.50;;
61702;SDS011;47622;47.726;3.298;2023-05-10T06:10:49;6.75;;;2.35;;
61702;SDS011;47622;47.726;3.298;2023-05-10T06:13:14;6.40;;;2.20;;
61702;SDS011;47622;47.726;3.298;2023-05-10T06:15:41;9.23;;;2.47;;
61702;SDS011;47622;47.726;3.298;2023-05-10T06:18:07;7.50;;;2.55;;
61702;SDS011;47622;47.726;3.298;2023-05-10T06:20:33;9.25;;;2.30;;
61702;SDS011;47622;47.726;3.298;2023-05-10T06:22:59;9.27;;;2.45;;
61702;SDS011;47622;47.726;3.298;2023-05-10T06:25:24;16.15;;;2.78;;
61702;SDS011;47622;47.726;3.298;2023-05-10T06:27:50;13.93;;;2.50;;
61702;SDS011;47622;47.726;3.298;2023-05-10T06:30:17;9.75;;;2.50;;
61702;SDS011;47622;47.726;3.298;2023-05-10T06:32:42;5.53;;;2.25;;
61702;SDS011;47622;47.726;3.298;2023-05-10T06:35:09;7.43;;;2.33;;
61702;SDS011;47622;47.726;3.298;2023-05-10T06:37:34;6.25;;;2.40;;
61702;SDS011;47622;47.726;3.298;2023-05-10T06:40:00;4.53;;;2.10;;
61702;SDS011;47622;47.726;3.298;2023-05-10T06:42:26;9.15;;;2.90;;
61702;SDS011;47622;47.726;3.298;2023-05-10T06:44:52;6.40;;;2.25;;
61702;SDS011;47622;47.726;3.298;2023-05-10T06:47:18;7.38;;;2.10;;
61702;SDS011;47622;47.726;3.298;2023-05-10T06:49:43;9.32;;;2.10;;
61702;SDS011;47622;47.726;3.298;2023-05-10T06:52:09;10.10;;;1.85;;
61702;SDS011;47622;47.726;3.298;2023-05-10T06:54:35;5.05;;;2.45;;
61702;SDS011;47622;47.726;3.298;2023-05-10T06:57:00;2.90;;;2.00;;
61702;SDS011;47622;47.726;3.298;2023-05-10T06:59:27;8.98;;;1.70;;
61702;SDS011;47622;47.726;3.298;2023-05-10T07:01:53;5.95;;;1.65;;
61702;SDS011;47622;47.726;3.298;2023-05-10T07:04:19;4.13;;;1.77;;
61702;SDS011;47622;47.726;3.298;2023-05-10T07:06:44;5.72;;;1.77;;
61702;SDS011;47622;47.726;3.298;2023-05-10T07:09:11;5.70;;;1.67;;
61702;SDS011;47622;47.726;3.298;2023-05-10T07:11:36;5.38;;;1.60;;
61702;SDS011;47622;47.726;3.298;2023-05-10T07:14:02;6.72;;;1.58;;
61702;SDS011;47622;47.726;3.298;2023-05-10T07:16:28;3.45;;;1.55;;
61702;SDS011;47622;47.726;3.298;2023-05-10T07:18:53;6.28;;;1.67;;
61702;SDS011;47622;47.726;3.298;2023-05-10T07:21:19;5.72;;;1.60;;
61702;SDS011;47622;47.726;3.298;2023-05-10T07:23:45;6.43;;;1.60;;
61702;SDS011;47622;47.726;3.298;2023-05-10T07:26:10;5.55;;;1.60;;
61702;SDS011;47622;47.726;3.298;2023-05-10T07:28:36;8.68;;;2.00;;
61702;SDS011;47622;47.726;3.298;2023-05-10T07:31:04;5.50;;;2.10;;
61702;SDS011;47622;47.726;3.298;2023-05-10T07:33:31;8.18;;;2.10;;
61702;SDS011;47622;47.726;3.298;2023-05-10T07:35:58;5.75;;;2.08;;
61702;SDS011;47622;47.726;3.298;2023-05-10T07:38:23;5.53;;;1.88;;
61702;SDS011;47622;47.726;3.298;2023-05-10T07:40:49;4.13;;;1.73;;
61702;SDS011;47622;47.726;3.298;2023-05-10T07:43:14;5.07;;;1.90;;
61702;SDS011;47622;47.726;3.298;2023-05-10T07:45:40;9.65;;;2.03;;
61702;SDS011;47622;47.726;3.298;2023-05-10T07:48:05;4.10;;;1.65;;
61702;SDS011;47622;47.726;3.298;2023-05-10T07:50:31;4.13;;;2.10;;
61702;SDS011;47622;47.726;3.298;2023-05-10T07:52:56;5.35;;;1.42;;
61702;SDS011;47622;47.726;3.298;2023-05-10T07:55:23;5.53;;;1.77;;
61702;SDS011;47622;47.726;3.298;2023-05-10T07:57:49;3.67;;;1.33;;
61702;SDS011;47622;47.726;3.298;2023-05-10T08:00:16;4.97;;;1.88;;
61702;SDS011;47622;47.726;3.298;2023-05-10T08:02:43;6.43;;;1.75;;
61702;SDS011;47622;47.726;3.298;2023-05-10T08:05:09;2.45;;;1.55;;
61702;SDS011;47622;47.726;3.298;2023-05-10T08:07:34;2.85;;;1.70;;
61702;SDS011;47622;47.726;3.298;2023-05-10T08:10:00;6.28;;;2.28;;
61702;SDS011;47622;47.726;3.298;2023-05-10T08:12:27;6.13;;;1.80;;
61702;SDS011;47622;47.726;3.298;2023-05-10T08:14:52;5.03;;;2.40;;
61702;SDS011;47622;47.726;3.298;2023-05-10T08:17:17;5.63;;;1.70;;
61702;SDS011;47622;47.726;3.298;2023-05-10T08:19:43;6.60;;;1.70;;
61702;SDS011;47622;47.726;3.298;2023-05-10T08:22:09;6.50;;;1.83;;
61702;SDS011;47622;47.726;3.298;2023-05-10T08:24:35;6.50;;;2.10;;
61702;SDS011;47622;47.726;3.298;2023-05-10T08:27:04;5.22;;;1.80;;
61702;SDS011;47622;47.726;3.298;2023-05-10T08:29:30;4.28;;;1.85;;
61702;SDS011;47622;47.726;3.298;2023-05-10T08:31:56;5.95;;;1.45;;
61702;SDS011;47622;47.726;3.298;2023-05-10T08:34:23;1.42;;;1.10;;
61702;SDS011;47622;47.726;3.298;2023-05-10T08:36:48;3.13;;;1.30;;
61702;SDS011;47622;47.726;3.298;2023-05-10T08:39:14;2.08;;;1.13;;
61702;SDS011;47622;47.726;3.298;2023-05-10T08:41:39;2.50;;;1.00;;
61702;SDS011;47622;47.726;3.298;2023-05-10T08:44:09;2.95;;;1.10;;
61702;SDS011;47622;47.726;3.298;2023-05-10T08:46:35;2.17;;;1.35;;
61702;SDS011;47622;47.726;3.298;2023-05-10T08:49:05;2.90;;;1.40;;
61702;SDS011;47622;47.726;3.298;2023-05-10T08:51:34;3.85;;;1.60;;
61702;SDS011;47622;47.726;3.298;2023-05-10T08:54:02;5.53;;;1.70;;
61702;SDS011;47622;47.726;3.298;2023-05-10T08:56:29;7.03;;;1.88;;
61702;SDS011;47622;47.726;3.298;2023-05-10T08:58:54;7.10;;;2.72;;
61702;SDS011;47622;47.726;3.298;2023-05-10T09:01:21;7.68;;;2.35;;
61702;SDS011;47622;47.726;3.298;2023-05-10T09:03:47;7.10;;;2.40;;
61702;SDS011;47622;47.726;3.298;2023-05-10T09:06:15;7.30;;;2.40;;
61702;SDS011;47622;47.726;3.298;2023-05-10T09:08:42;5.97;;;2.90;;
61702;SDS011;47622;47.726;3.298;2023-05-10T09:11:08;7.72;;;2.63;;
61702;SDS011;47622;47.726;3.298;2023-05-10T09:13:35;6.88;;;2.60;;
61702;SDS011;47622;47.726;3.298;2023-05-10T09:16:02;9.45;;;2.90;;
61702;SDS011;47622;47.726;3.298;2023-05-10T09:18:30;11.93;;;3.50;;
61702;SDS011;47622;47.726;3.298;2023-05-10T09:20:55;9.95;;;2.90;;
61702;SDS011;47622;47.726;3.298;2023-05-10T09:23:21;18.75;;;3.60;;
61702;SDS011;47622;47.726;3.298;2023-05-10T09:25:47;9.95;;;3.10;;
61702;SDS011;47622;47.726;3.298;2023-05-10T09:28:12;11.75;;;2.90;;
61702;SDS011;47622;47.726;3.298;2023-05-10T09:30:38;11.27;;;4.03;;
61702;SDS011;47622;47.726;3.298;2023-05-10T09:33:04;12.23;;;3.42;;
61702;SDS011;47622;47.726;3.298;2023-05-10T09:35:31;12.13;;;2.92;;
61702;SDS011;47622;47.726;3.298;2023-05-10T09:38:00;13.90;;;3.45;;
61702;SDS011;47622;47.726;3.298;2023-05-10T09:40:28;13.48;;;3.25;;
61702;SDS011;47622;47.726;3.298;2023-05-10T09:43:01;10.52;;;3.33;;
61702;SDS011;47622;47.726;3.298;2023-05-10T09:45:28;14.80;;;4.07;;
61702;SDS011;47622;47.726;3.298;2023-05-10T09:47:55;12.98;;;3.70;;
61702;SDS011;47622;47.726;3.298;2023-05-10T09:50:21;14.00;;;3.08;;
61702;SDS011;47622;47.726;3.298;2023-05-10T09:55:19;12.18;;;3.97;;
61702;SDS011;47622;47.726;3.298;2023-05-10T09:57:47;11.05;;;3.15;;
61702;SDS011;47622;47.726;3.298;2023-05-10T10:00:16;12.18;;;3.22;;
61702;SDS011;47622;47.726;3.298;2023-05-10T10:02:44;18.90;;;3.47;;
61702;SDS011;47622;47.726;3.298;2023-05-10T10:05:11;13.20;;;3.83;;
61702;SDS011;47622;47.726;3.298;2023-05-10T10:07:38;11.75;;;3.55;;
61702;SDS011;47622;47.726;3.298;2023-05-10T10:10:04;15.77;;;3.58;;
61702;SDS011;47622;47.726;3.298;2023-05-10T10:12:36;14.52;;;3.53;;
61702;SDS011;47622;47.726;3.298;2023-05-10T10:15:02;17.88;;;3.95;;
61702;SDS011;47622;47.726;3.298;2023-05-10T10:17:29;15.05;;;3.40;;
61702;SDS011;47622;47.726;3.298;2023-05-10T10:19:57;15.32;;;3.22;;
61702;SDS011;47622;47.726;3.298;2023-05-10T10:22:23;17.17;;;3.92;;
61702;SDS011;47622;47.726;3.298;2023-05-10T10:24:49;13.77;;;3.45;;
61702;SDS011;47622;47.726;3.298;2023-05-10T10:27:19;13.88;;;3.45;;
61702;SDS011;47622;47.726;3.298;2023-05-10T10:29:52;16.75;;;3.95;;
61702;SDS011;47622;47.726;3.298;2023-05-10T10:35:32;8.75;;;2.60;;
61702;SDS011;47622;47.726;3.298;2023-05-10T10:37:59;10.10;;;3.33;;
61702;SDS011;47622;47.726;3.298;2023-05-10T10:40:32;8.48;;;3.00;;
61702;SDS011;47622;47.726;3.298;2023-05-10T10:43:20;10.07;;;2.90;;
61702;SDS011;47622;47.726;3.298;2023-05-10T10:48:36;11.55;;;3.28;;
61702;SDS011;47622;47.726;3.298;2023-05-10T10:51:02;13.82;;;3.20;;
61702;SDS011;47622;47.726;3.298;2023-05-10T10:53:28;9.82;;;2.95;;
61702;SDS011;47622;47.726;3.298;2023-05-10T10:56:07;13.25;;;3.20;;
61702;SDS011;47622;47.726;3.298;2023-05-10T10:58:35;12.07;;;2.95;;
61702;SDS011;47622;47.726;3.298;2023-05-10T11:01:12;8.10;;;2.90;;
61702;SDS011;47622;47.726;3.298;2023-05-10T11:03:40;13.30;;;3.15;;
61702;SDS011;47622;47.726;3.298;2023-05-10T11:06:28;9.93;;;2.85;;
61702;SDS011;47622;47.726;3.298;2023-05-10T11:08:56;12.55;;;3.05;;
61702;SDS011;47622;47.726;3.298;2023-05-10T11:11:22;13.45;;;3.65;;
61702;SDS011;47622;47.726;3.298;2023-05-10T11:13:48;10.52;;;2.92;;
61702;SDS011;47622;47.726;3.298;2023-05-10T11:16:15;9.23;;;3.05;;
61702;SDS011;47622;47.726;3.298;2023-05-10T11:21:28;14.55;;;3.20;;
61702;SDS011;47622;47.726;3.298;2023-05-10T11:23:58;11.93;;;3.42;;
61702;SDS011;47622;47.726;3.298;2023-05-10T11:26:25;10.93;;;2.95;;
61702;SDS011;47622;47.726;3.298;2023-05-10T11:28:56;9.50;;;2.92;;
61702;SDS011;47622;47.726;3.298;2023-05-10T11:31:23;10.85;;;3.00;;
61702;SDS011;47622;47.726;3.298;2023-05-10T11:33:55;9.30;;;3.15;;
61702;SDS011;47622;47.726;3.298;2023-05-10T11:36:28;11.20;;;3.05;;
61702;SDS011;47622;47.726;3.298;2023-05-10T11:39:02;13.25;;;3.33;;
61702;SDS011;47622;47.726;3.298;2023-05-10T11:41:30;9.77;;;3.08;;
61702;SDS011;47622;47.726;3.298;2023-05-10T11:43:56;13.93;;;3.10;;
61702;SDS011;47622;47.726;3.298;2023-05-10T11:46:23;11.50;;;2.53;;
61702;SDS011;47622;47.726;3.298;2023-05-10T11:48:52;13.30;;;2.97;;
61702;SDS011;47622;47.726;3.298;2023-05-10T11:51:34;8.15;;;2.47;;
61702;SDS011;47622;47.726;3.298;2023-05-10T11:54:01;7.70;;;2.83;;
61702;SDS011;47622;47.726;3.298;2023-05-10T11:56:32;8.07;;;2.80;;
61702;SDS011;47622;47.726;3.298;2023-05-10T11:58:58;11.00;;;2.65;;
61702;SDS011;47622;47.726;3.298;2023-05-10T12:01:24;10.50;;;2.83;;
61702;SDS011;47622;47.726;3.298;2023-05-10T12:03:51;7.32;;;2.40;;
61702;SDS011;47622;47.726;3.298;2023-05-10T12:06:18;15.90;;;3.05;;
61702;SDS011;47622;47.726;3.298;2023-05-10T12:08:48;9.98;;;2.85;;
61702;SDS011;47622;47.726;3.298;2023-05-10T12:11:18;8.95;;;2.50;;
61702;SDS011;47622;47.726;3.298;2023-05-10T12:13:45;12.75;;;3.20;;
61702;SDS011;47622;47.726;3.298;2023-05-10T12:16:12;10.80;;;2.88;;
61702;SDS011;47622;47.726;3.298;2023-05-10T12:18:42;16.45;;;2.95;;
61702;SDS011;47622;47.726;3.298;2023-05-10T12:21:09;8.80;;;2.38;;
61702;SDS011;47622;47.726;3.298;2023-05-10T12:23:38;12.23;;;2.83;;
61702;SDS011;47622;47.726;3.298;2023-05-10T12:26:05;10.13;;;2.65;;
61702;SDS011;47622;47.726;3.298;2023-05-10T12:28:31;14.57;;;3.10;;
61702;SDS011;47622;47.726;3.298;2023-05-10T12:30:58;8.98;;;2.55;;
61702;SDS011;47622;47.726;3.298;2023-05-10T12:33:26;8.27;;;2.85;;
61702;SDS011;47622;47.726;3.298;2023-05-10T12:35:52;15.07;;;2.63;;
61702;SDS011;47622;47.726;3.298;2023-05-10T12:38:29;8.32;;;2.55;;
61702;SDS011;47622;47.726;3.298;2023-05-10T12:40:59;9.52;;;2.10;;
61702;SDS011;47622;47.726;3.298;2023-05-10T12:43:27;10.27;;;2.63;;
61702;SDS011;47622;47.726;3.298;2023-05-10T12:45:53;9.50;;;2.88;;
61702;SDS011;47622;47.726;3.298;2023-05-10T12:48:19;5.25;;;2.10;;
61702;SDS011;47622;47.726;3.298;2023-05-10T12:50:45;11.93;;;2.50;;
61702;SDS011;47622;47.726;3.298;2023-05-10T12:53:11;12.32;;;2.78;;
61702;SDS011;47622;47.726;3.298;2023-05-10T12:55:40;11.52;;;2.35;;
61702;SDS011;47622;47.726;3.298;2023-05-10T12:58:06;7.50;;;2.03;;
61702;SDS011;47622;47.726;3.298;2023-05-10T13:00:32;11.25;;;2.45;;
61702;SDS011;47622;47.726;3.298;2023-05-10T13:02:57;10.48;;;2.40;;
61702;SDS011;47622;47.726;3.298;2023-05-10T13:05:23;9.77;;;2.28;;
61702;SDS011;47622;47.726;3.298;2023-05-10T13:07:48;9.75;;;2.88;;
61702;SDS011;47622;47.726;3.298;2023-05-10T13:10:14;8.50;;;2.00;;
61702;SDS011;47622;47.726;3.298;2023-05-10T13:12:41;11.73;;;2.50;;
61702;SDS011;47622;47.726;3.298;2023-05-10T13:15:06;6.63;;;2.13;;
61702;SDS011;47622;47.726;3.298;2023-05-10T13:17:32;13.93;;;2.40;;
61702;SDS011;47622;47.726;3.298;2023-05-10T13:19:58;7.40;;;2.30;;
61702;SDS011;47622;47.726;3.298;2023-05-10T13:22:23;5.47;;;2.05;;
61702;SDS011;47622;47.726;3.298;2023-05-10T13:24:49;11.27;;;2.38;;
61702;SDS011;47622;47.726;3.298;2023-05-10T13:27:15;9.13;;;2.40;;
61702;SDS011;47622;47.726;3.298;2023-05-10T13:29:40;7.32;;;2.42;;
61702;SDS011;47622;47.726;3.298;2023-05-10T13:32:06;8.27;;;2.22;;
61702;SDS011;47622;47.726;3.298;2023-05-10T13:34:31;5.18;;;1.90;;
61702;SDS011;47622;47.726;3.298;2023-05-10T13:36:57;7.38;;;2.30;;
61702;SDS011;47622;47.726;3.298;2023-05-10T13:39:23;7.47;;;2.75;;
61702;SDS011;47622;47.726;3.298;2023-05-10T13:41:48;10.63;;;2.65;;
61702;SDS011;47622;47.726;3.298;2023-05-10T13:44:14;10.75;;;2.67;;
61702;SDS011;47622;47.726;3.298;2023-05-10T13:46:41;6.78;;;2.13;;
61702;SDS011;47622;47.726;3.298;2023-05-10T13:49:08;8.65;;;2.30;;
61702;SDS011;47622;47.726;3.298;2023-05-10T13:51:34;9.43;;;2.30;;
61702;SDS011;47622;47.726;3.298;2023-05-10T13:54:00;8.90;;;2.60;;
61702;SDS011;47622;47.726;3.298;2023-05-10T13:56:27;5.85;;;1.88;;
61702;SDS011;47622;47.726;3.298;2023-05-10T13:58:52;3.78;;;1.50;;
61702;SDS011;47622;47.726;3.298;2023-05-10T14:01:18;6.68;;;1.85;;
61702;SDS011;47622;47.726;3.298;2023-05-10T14:03:44;8.00;;;1.52;;
61702;SDS011;47622;47.726;3.298;2023-05-10T14:06:09;3.42;;;1.65;;
61702;SDS011;47622;47.726;3.298;2023-05-10T14:08:35;2.00;;;1.38;;
61702;SDS011;47622;47.726;3.298;2023-05-10T14:11:01;3.63;;;1.35;;
61702;SDS011;47622;47.726;3.298;2023-05-10T14:13:27;4.13;;;1.15;;
61702;SDS011;47622;47.726;3.298;2023-05-10T14:15:54;2.47;;;1.00;;
61702;SDS011;47622;47.726;3.298;2023-05-10T14:18:20;3.17;;;1.27;;
61702;SDS011;47622;47.726;3.298;2023-05-10T14:20:47;5.05;;;1.10;;
61702;SDS011;47622;47.726;3.298;2023-05-10T14:23:13;2.30;;;1.10;;
61702;SDS011;47622;47.726;3.298;2023-05-10T14:25:42;3.45;;;1.65;;
61702;SDS011;47622;47.726;3.298;2023-05-10T14:28:08;6.07;;;1.50;;
61702;SDS011;47622;47.726;3.298;2023-05-10T14:30:34;5.85;;;1.50;;
61702;SDS011;47622;47.726;3.298;2023-05-10T14:33:01;5.00;;;1.45;;
61702;SDS011;47622;47.726;3.298;2023-05-10T14:35:27;5.35;;;1.77;;
61702;SDS011;47622;47.726;3.298;2023-05-10T14:37:53;8.57;;;1.95;;
61702;SDS011;47622;47.726;3.298;2023-05-10T14:40:19;8.73;;;1.90;;
61702;SDS011;47622;47.726;3.298;2023-05-10T14:42:46;3.67;;;1.67;;
61702;SDS011;47622;47.726;3.298;2023-05-10T14:45:11;7.15;;;1.83;;
61702;SDS011;47622;47.726;3.298;2023-05-10T14:47:37;7.43;;;1.73;;
61702;SDS011;47622;47.726;3.298;2023-05-10T14:50:03;4.82;;;1.90;;
61702;SDS011;47622;47.726;3.298;2023-05-10T14:52:29;4.70;;;1.77;;
61702;SDS011;47622;47.726;3.298;2023-05-10T14:54:54;6.45;;;1.70;;
61702;SDS011;47622;47.726;3.298;2023-05-10T14:57:20;4.97;;;1.65;;
61702;SDS011;47622;47.726;3.298;2023-05-10T14:59:45;4.95;;;1.60;;
61702;SDS011;47622;47.726;3.298;2023-05-10T15:02:11;5.78;;;1.90;;
61702;SDS011;47622;47.726;3.298;2023-05-10T15:04:36;4.18;;;2.03;;
61702;SDS011;47622;47.726;3.298;2023-05-10T15:07:02;3.72;;;1.45;;
61702;SDS011;47622;47.726;3.298;2023-05-10T15:09:28;4.35;;;1.52;;
61702;SDS011;47622;47.726;3.298;2023-05-10T15:11:53;3.38;;;1.67;;
61702;SDS011;47622;47.726;3.298;2023-05-10T15:14:19;5.53;;;1.60;;
61702;SDS011;47622;47.726;3.298;2023-05-10T15:16:45;4.90;;;2.65;;